Time,TemperatureF,DewpointF,PressureIn,WindDirection,WindDirectionDegrees,WindSpeedMPH,WindSpeedGustMPH,Humidity,HourlyPrecipIn,Conditions,Clouds,dailyrainin,SoftwareType,DateUTC
2013-11-24 00:00:00,34.7,32.3,30.23,NE,37,0.0,0.0,91,0.00,,,0.70,Wunderground v.1.15,2013-11-24 07:00:00,
2013-11-24 00:05:00,34.6,32.2,30.23,NE,37,0.0,0.0,91,0.00,,,0.00,Wunderground v.1.15,2013-11-24 07:05:00,
2013-11-24 00:15:00,34.6,32.2,30.23,NE,37,0.0,0.0,91,0.00,,,0.00,Wunderground v.1.15,2013-11-24 07:15:00,
2013-11-24 00:20:00,34.6,32.2,30.23,NE,37,0.0,0.0,91,0.00,,,0.00,Wunderground v.1.15,2013-11-24 07:20:00,
2013-11-24 00:25:00,34.6,32.2,30.22,NE,37,0.0,0.0,91,0.00,,,0.00,Wunderground v.1.15,2013-11-24 07:25:00,
2013-11-24 00:30:00,34.6,32.2,30.22,NE,37,0.0,0.0,91,0.00,,,0.00,Wunderground v.1.15,2013-11-24 07:30:00,
2013-11-24 00:40:00,34.4,32.0,30.22,NE,37,0.0,0.0,91,0.00,,,0.00,Wunderground v.1.15,2013-11-24 07:40:00,
2013-11-24 00:45:00,34.4,32.0,30.22,NE,37,0.0,0.0,91,0.00,,,0.00,Wunderground v.1.15,2013-11-24 07:45:00,
2013-11-24 00:55:00,34.4,32.0,30.22,NE,37,0.0,0.0,91,0.00,,,0.00,Wunderground v.1.15,2013-11-24 07:55:00,
2013-11-24 01:00:00,34.4,32.0,30.22,NE,37,0.0,0.0,91,0.00,,,0.00,Wunderground v.1.15,2013-11-24 08:00:00,
2013-11-24 01:05:00,34.4,32.0,30.21,NE,37,0.0,0.0,91,0.00,,,0.01,Wunderground v.1.15,2013-11-24 08:05:00,
2013-11-24 01:15:00,34.4,32.0,30.21,NE,37,0.0,0.0,91,0.00,,,0.01,Wunderground v.1.15,2013-11-24 08:15:00,
2013-11-24 01:20:00,34.4,32.0,30.21,NE,37,0.0,0.0,91,0.00,,,0.01,Wunderground v.1.15,2013-11-24 08:20:00,
2013-11-24 01:30:00,34.4,32.0,30.21,NE,37,0.0,0.0,91,0.00,,,0.01,Wunderground v.1.15,2013-11-24 08:30:00,
2013-11-24 01:35:00,34.4,32.0,30.21,NE,37,0.0,0.0,91,0.00,,,0.01,Wunderground v.1.15,2013-11-24 08:35:00,
2013-11-24 01:40:00,34.4,32.0,30.21,NE,37,0.0,0.0,91,0.00,,,0.01,Wunderground v.1.15,2013-11-24 08:40:00,
2013-11-24 01:45:00,34.2,31.8,30.22,NE,37,0.0,0.0,91,0.00,,,0.01,Wunderground v.1.15,2013-11-24 08:45:00,
2013-11-24 01:50:00,34.2,31.8,30.22,NE,37,0.0,0.0,91,0.00,,,0.01,Wunderground v.1.15,2013-11-24 08:50:00,
2013-11-24 01:55:00,34.3,31.9,30.22,NE,37,0.0,0.0,91,0.00,,,0.01,Wunderground v.1.15,2013-11-24 08:55:00,
2013-11-24 02:00:00,34.4,32.0,30.22,NE,37,0.0,0.0,91,0.00,,,0.01,Wunderground v.1.15,2013-11-24 09:00:00,
2013-11-24 02:10:00,34.4,32.0,30.22,NE,37,0.0,0.0,91,0.00,,,0.01,Wunderground v.1.15,2013-11-24 09:10:00,
2013-11-24 02:15:00,34.4,32.0,30.22,NE,37,0.0,0.0,91,0.00,,,0.01,Wunderground v.1.15,2013-11-24 09:15:00,
2013-11-24 02:20:00,34.4,32.0,30.22,NE,37,0.0,0.0,91,0.00,,,0.01,Wunderground v.1.15,2013-11-24 09:20:00,
2013-11-24 02:25:00,34.4,32.0,30.22,NE,37,0.0,0.0,91,0.00,,,0.01,Wunderground v.1.15,2013-11-24 09:25:00,
2013-11-24 02:30:00,34.4,32.0,30.22,NE,37,0.0,0.0,91,0.00,,,0.01,Wunderground v.1.15,2013-11-24 09:30:00,
2013-11-24 02:35:00,34.4,32.0,30.21,NE,37,0.0,0.0,91,0.00,,,0.01,Wunderground v.1.15,2013-11-24 09:35:00,
2013-11-24 02:45:00,34.4,32.0,30.21,NE,37,0.0,0.0,91,0.00,,,0.01,Wunderground v.1.15,2013-11-24 09:45:00,
2013-11-24 02:50:00,34.4,32.0,30.21,NE,37,0.0,0.0,91,0.00,,,0.01,Wunderground v.1.15,2013-11-24 09:50:00,
2013-11-24 02:55:00,34.4,32.0,30.21,NE,37,0.0,0.0,91,0.00,,,0.01,Wunderground v.1.15,2013-11-24 09:55:00,
2013-11-24 03:00:00,34.4,32.0,30.20,NE,37,0.0,0.0,91,0.00,,,0.01,Wunderground v.1.15,2013-11-24 10:00:00,
2013-11-24 03:05:00,34.4,32.0,30.22,NE,37,0.0,0.0,91,0.00,,,0.01,Wunderground v.1.15,2013-11-24 10:05:00,
2013-11-24 03:15:00,34.6,32.2,30.20,NE,37,0.0,0.0,91,0.00,,,0.01,Wunderground v.1.15,2013-11-24 10:15:00,
2013-11-24 03:20:00,34.7,32.3,30.20,NE,37,0.0,0.0,91,0.00,,,0.01,Wunderground v.1.15,2013-11-24 10:20:00,
2013-11-24 03:25:00,34.7,32.3,30.20,NE,37,0.0,0.0,91,0.00,,,0.01,Wunderground v.1.15,2013-11-24 10:25:00,
2013-11-24 03:30:00,34.7,32.3,30.20,NE,37,0.0,0.0,91,0.00,,,0.02,Wunderground v.1.15,2013-11-24 10:30:00,
2013-11-24 03:35:00,34.7,32.3,30.20,NE,37,0.0,0.0,91,0.00,,,0.02,Wunderground v.1.15,2013-11-24 10:35:00,
2013-11-24 03:40:00,34.6,32.2,30.20,NE,37,0.0,0.0,91,0.00,,,0.02,Wunderground v.1.15,2013-11-24 10:40:00,
2013-11-24 03:45:00,34.6,32.2,30.19,NE,37,0.0,0.0,91,0.00,,,0.02,Wunderground v.1.15,2013-11-24 10:45:00,
2013-11-24 03:55:00,34.5,32.1,30.19,NE,37,0.0,0.0,91,0.00,,,0.02,Wunderground v.1.15,2013-11-24 10:55:00,
2013-11-24 04:00:00,34.4,32.0,30.20,NE,37,0.0,0.0,91,0.00,,,0.02,Wunderground v.1.15,2013-11-24 11:00:00,
2013-11-24 04:05:00,34.4,32.0,30.21,NE,37,0.0,0.0,91,0.00,,,0.02,Wunderground v.1.15,2013-11-24 11:05:00,
2013-11-24 04:15:00,34.4,32.0,30.20,NE,37,0.0,0.0,91,0.00,,,0.02,Wunderground v.1.15,2013-11-24 11:15:00,
2013-11-24 04:20:00,34.7,32.3,30.20,NE,37,0.0,0.0,91,0.00,,,0.02,Wunderground v.1.15,2013-11-24 11:20:00,
2013-11-24 04:30:00,34.6,32.2,30.20,NE,37,0.0,0.0,91,0.00,,,0.02,Wunderground v.1.15,2013-11-24 11:30:00,
2013-11-24 04:35:00,34.6,32.2,30.20,NE,37,0.0,0.0,91,0.00,,,0.02,Wunderground v.1.15,2013-11-24 11:35:00,
2013-11-24 04:40:00,34.5,32.1,30.20,NE,37,0.0,0.0,91,0.00,,,0.02,Wunderground v.1.15,2013-11-24 11:40:00,
2013-11-24 04:45:00,34.4,32.0,30.21,NE,37,0.0,0.0,91,0.00,,,0.02,Wunderground v.1.15,2013-11-24 11:45:00,
2013-11-24 04:55:00,34.4,32.0,30.21,NE,37,0.0,0.0,91,0.00,,,0.02,Wunderground v.1.15,2013-11-24 11:55:00,
2013-11-24 05:00:00,34.4,32.0,30.21,NE,37,0.0,0.0,91,0.00,,,0.02,Wunderground v.1.15,2013-11-24 12:00:00,
2013-11-24 05:05:00,34.3,31.9,30.21,NE,37,0.0,0.0,91,0.00,,,0.02,Wunderground v.1.15,2013-11-24 12:05:00,
2013-11-24 05:15:00,34.1,31.7,30.22,NE,37,0.0,0.0,91,0.00,,,0.02,Wunderground v.1.15,2013-11-24 12:15:00,
2013-11-24 05:20:00,34.1,31.7,30.22,NE,37,0.0,0.0,91,0.00,,,0.02,Wunderground v.1.15,2013-11-24 12:20:00,
2013-11-24 05:25:00,34.1,31.7,30.21,NE,37,0.0,0.0,91,0.00,,,0.02,Wunderground v.1.15,2013-11-24 12:25:00,
2013-11-24 05:30:00,34.1,31.7,30.21,NE,37,0.0,0.0,91,0.00,,,0.02,Wunderground v.1.15,2013-11-24 12:30:00,
2013-11-24 05:40:00,34.0,31.6,30.21,NE,37,0.0,0.0,91,0.00,,,0.02,Wunderground v.1.15,2013-11-24 12:40:00,
2013-11-24 05:45:00,34.1,31.7,30.21,NE,37,0.0,0.0,91,0.00,,,0.02,Wunderground v.1.15,2013-11-24 12:45:00,
2013-11-24 05:50:00,34.1,31.7,30.21,NE,37,0.0,0.0,91,0.00,,,0.02,Wunderground v.1.15,2013-11-24 12:50:00,
2013-11-24 05:55:00,34.2,31.8,30.21,NE,37,0.0,0.0,91,0.00,,,0.02,Wunderground v.1.15,2013-11-24 12:55:00,
2013-11-24 06:00:00,34.4,32.0,30.21,NE,37,0.0,0.0,91,0.00,,,0.02,Wunderground v.1.15,2013-11-24 13:00:00,
2013-11-24 06:05:00,34.4,32.0,30.20,NE,37,0.0,0.0,91,0.00,,,0.02,Wunderground v.1.15,2013-11-24 13:05:00,
2013-11-24 06:15:00,34.4,32.0,30.20,NE,37,0.0,0.0,91,0.00,,,0.02,Wunderground v.1.15,2013-11-24 13:15:00,
2013-11-24 06:20:00,34.4,32.0,30.20,NE,37,0.0,0.0,91,0.00,,,0.02,Wunderground v.1.15,2013-11-24 13:20:00,
2013-11-24 06:25:00,34.4,32.0,30.20,NE,37,0.0,0.0,91,0.00,,,0.02,Wunderground v.1.15,2013-11-24 13:25:00,
2013-11-24 06:30:00,34.4,32.0,30.20,NE,37,0.0,0.0,91,0.00,,,0.02,Wunderground v.1.15,2013-11-24 13:30:00,
2013-11-24 06:35:00,34.4,32.0,30.20,NE,37,0.0,0.0,91,0.00,,,0.02,Wunderground v.1.15,2013-11-24 13:35:00,
2013-11-24 06:40:00,34.4,32.0,30.20,NE,37,0.0,0.0,91,0.00,,,0.02,Wunderground v.1.15,2013-11-24 13:40:00,
2013-11-24 06:50:00,34.4,32.0,30.20,NE,37,0.0,0.0,91,0.00,,,0.02,Wunderground v.1.15,2013-11-24 13:50:00,
2013-11-24 06:55:00,34.4,32.0,30.20,NE,37,0.0,0.0,91,0.00,,,0.02,Wunderground v.1.15,2013-11-24 13:55:00,
2013-11-24 07:05:00,34.1,31.7,30.20,NE,37,0.0,0.0,91,0.00,,,0.02,Wunderground v.1.15,2013-11-24 14:05:00,
2013-11-24 07:15:00,33.9,31.6,30.20,NE,37,0.0,0.0,91,0.00,,,0.02,Wunderground v.1.15,2013-11-24 14:15:00,
2013-11-24 07:25:00,33.8,31.5,30.20,NE,37,0.0,0.0,91,0.00,,,0.02,Wunderground v.1.15,2013-11-24 14:25:00,
2013-11-24 07:30:00,33.9,31.6,30.20,NE,37,0.0,0.0,91,0.00,,,0.02,Wunderground v.1.15,2013-11-24 14:30:00,
2013-11-24 07:40:00,34.1,31.7,30.21,NE,37,0.0,0.0,91,0.00,,,0.02,Wunderground v.1.15,2013-11-24 14:40:00,
2013-11-24 07:45:00,34.3,31.9,30.21,NE,37,0.0,0.0,91,0.00,,,0.02,Wunderground v.1.15,2013-11-24 14:45:00,
2013-11-24 07:50:00,34.4,32.0,30.21,NE,37,0.0,0.0,91,0.00,,,0.02,Wunderground v.1.15,2013-11-24 14:50:00,
2013-11-24 08:00:00,34.4,32.0,30.21,NE,37,0.0,0.0,91,0.00,,,0.03,Wunderground v.1.15,2013-11-24 15:00:00,
2013-11-24 08:05:00,34.4,32.0,30.20,NE,37,0.0,0.0,91,0.00,,,0.03,Wunderground v.1.15,2013-11-24 15:05:00,
2013-11-24 08:15:00,34.4,32.0,30.21,NE,37,0.0,0.0,91,0.00,,,0.03,Wunderground v.1.15,2013-11-24 15:15:00,
2013-11-24 08:20:00,34.4,32.0,30.21,NE,37,0.0,0.0,91,0.00,,,0.03,Wunderground v.1.15,2013-11-24 15:20:00,
2013-11-24 08:30:00,34.4,32.0,30.20,NE,37,0.0,0.0,91,0.00,,,0.03,Wunderground v.1.15,2013-11-24 15:30:00,
2013-11-24 08:35:00,34.4,32.0,30.20,NE,37,0.0,0.0,91,0.00,,,0.03,Wunderground v.1.15,2013-11-24 15:35:00,
2013-11-24 08:40:00,34.4,32.0,30.20,NE,37,0.0,0.0,91,0.00,,,0.03,Wunderground v.1.15,2013-11-24 15:40:00,
2013-11-24 08:50:00,34.4,32.0,30.20,NE,37,0.0,0.0,91,0.00,,,0.03,Wunderground v.1.15,2013-11-24 15:50:00,
2013-11-24 08:55:00,34.4,32.0,30.20,NE,37,0.0,0.0,91,0.00,,,0.03,Wunderground v.1.15,2013-11-24 15:55:00,
2013-11-24 09:05:00,34.7,32.3,30.19,NE,37,0.0,0.0,91,0.00,,,0.03,Wunderground v.1.15,2013-11-24 16:05:00,
2013-11-24 09:15:00,35.2,32.8,30.19,NE,37,0.0,0.0,91,0.00,,,0.04,Wunderground v.1.15,2013-11-24 16:15:00,
2013-11-24 09:20:00,35.3,32.9,30.19,NE,37,0.0,0.0,91,0.00,,,0.04,Wunderground v.1.15,2013-11-24 16:20:00,
2013-11-24 09:25:00,35.4,33.0,30.19,NE,37,0.0,0.0,91,0.00,,,0.04,Wunderground v.1.15,2013-11-24 16:25:00,
2013-11-24 09:30:00,35.4,33.0,30.19,NE,37,0.0,0.0,91,0.00,,,0.04,Wunderground v.1.15,2013-11-24 16:30:00,
2013-11-24 09:35:00,35.4,33.0,30.19,NE,37,0.0,0.0,91,0.00,,,0.04,Wunderground v.1.15,2013-11-24 16:35:00,
2013-11-24 09:45:00,35.3,32.9,30.19,NE,37,0.0,0.0,91,0.00,,,0.04,Wunderground v.1.15,2013-11-24 16:45:00,
2013-11-24 09:50:00,35.4,33.0,30.20,NE,37,0.0,0.0,91,0.00,,,0.04,Wunderground v.1.15,2013-11-24 16:50:00,
2013-11-24 09:55:00,35.5,33.1,30.19,NE,37,0.0,0.0,91,0.00,,,0.04,Wunderground v.1.15,2013-11-24 16:55:00,
2013-11-24 10:00:00,35.6,33.2,30.20,NE,37,0.0,0.0,91,0.00,,,0.04,Wunderground v.1.15,2013-11-24 17:00:00,
2013-11-24 10:05:00,35.7,33.3,30.19,NE,37,0.0,0.0,91,0.00,,,0.04,Wunderground v.1.15,2013-11-24 17:05:00,
2013-11-24 10:15:00,35.9,33.5,30.20,NE,37,0.0,0.0,91,0.00,,,0.05,Wunderground v.1.15,2013-11-24 17:15:00,
2013-11-24 10:20:00,36.1,34.0,30.20,NE,37,0.0,0.0,92,0.00,,,0.05,Wunderground v.1.15,2013-11-24 17:20:00,
2013-11-24 10:25:00,36.2,33.8,30.19,NE,37,0.0,0.0,91,0.00,,,0.05,Wunderground v.1.15,2013-11-24 17:25:00,
2013-11-24 10:30:00,36.4,34.0,30.19,NE,37,0.0,0.0,91,0.00,,,0.05,Wunderground v.1.15,2013-11-24 17:30:00,
2013-11-24 10:35:00,36.3,33.9,30.19,NE,37,0.0,0.0,91,0.00,,,0.05,Wunderground v.1.15,2013-11-24 17:35:00,
2013-11-24 10:40:00,36.2,33.8,30.19,NE,37,0.0,0.0,91,0.00,,,0.05,Wunderground v.1.15,2013-11-24 17:40:00,
2013-11-24 10:50:00,36.5,34.1,30.18,NE,37,0.0,0.0,91,0.00,,,0.05,Wunderground v.1.15,2013-11-24 17:50:00,
2013-11-24 10:55:00,36.5,34.1,30.17,NE,37,0.0,0.0,91,0.00,,,0.05,Wunderground v.1.15,2013-11-24 17:55:00,
2013-11-24 11:00:00,36.6,34.2,30.17,NE,37,0.0,0.0,91,0.00,,,0.06,Wunderground v.1.15,2013-11-24 18:00:00,
2013-11-24 11:05:00,36.7,34.6,30.17,NE,37,0.0,0.0,92,0.00,,,0.06,Wunderground v.1.15,2013-11-24 18:05:00,
2013-11-24 11:15:00,36.9,34.5,30.17,NE,37,0.0,0.0,91,0.00,,,0.06,Wunderground v.1.15,2013-11-24 18:15:00,
2013-11-24 11:25:00,37.0,34.6,30.17,NE,37,0.0,0.0,91,0.00,,,0.06,Wunderground v.1.15,2013-11-24 18:25:00,
2013-11-24 11:30:00,37.1,34.7,30.16,NE,37,0.0,0.0,91,0.00,,,0.06,Wunderground v.1.15,2013-11-24 18:30:00,
2013-11-24 11:35:00,37.2,34.8,30.16,NE,37,0.0,0.0,91,0.00,,,0.06,Wunderground v.1.15,2013-11-24 18:35:00,
2013-11-24 11:40:00,37.6,35.5,30.16,NE,37,0.0,0.0,92,0.00,,,0.06,Wunderground v.1.15,2013-11-24 18:40:00,
2013-11-24 11:45:00,37.8,35.4,30.15,NE,37,0.0,0.0,91,0.00,,,0.06,Wunderground v.1.15,2013-11-24 18:45:00,
2013-11-24 11:50:00,37.5,35.4,30.16,NE,37,0.0,0.0,92,0.00,,,0.06,Wunderground v.1.15,2013-11-24 18:50:00,
2013-11-24 11:55:00,37.5,35.1,30.15,NE,37,0.0,0.0,91,0.00,,,0.06,Wunderground v.1.15,2013-11-24 18:55:00,
2013-11-24 12:05:00,37.9,35.5,30.14,NE,37,0.0,0.0,91,0.00,,,0.07,Wunderground v.1.15,2013-11-24 19:05:00,
2013-11-24 12:15:00,38.5,36.1,30.14,NE,37,0.0,0.0,91,0.00,,,0.07,Wunderground v.1.15,2013-11-24 19:15:00,
2013-11-24 12:20:00,38.6,36.5,30.14,NE,37,0.0,0.0,92,0.00,,,0.07,Wunderground v.1.15,2013-11-24 19:20:00,
2013-11-24 12:25:00,38.8,36.7,30.13,NE,37,0.0,0.0,92,0.00,,,0.07,Wunderground v.1.15,2013-11-24 19:25:00,
2013-11-24 12:30:00,38.9,36.5,30.13,NE,37,0.0,0.0,91,0.00,,,0.07,Wunderground v.1.15,2013-11-24 19:30:00,
2013-11-24 12:40:00,39.3,36.9,30.12,West,264,0.0,2.0,91,0.00,,,0.07,Wunderground v.1.15,2013-11-24 19:40:00,
2013-11-24 12:45:00,39.5,37.1,30.11,West,272,1.0,3.0,91,0.00,,,0.07,Wunderground v.1.15,2013-11-24 19:45:00,
2013-11-24 12:50:00,39.7,37.3,30.11,West,281,2.0,2.0,91,0.00,,,0.07,Wunderground v.1.15,2013-11-24 19:50:00,
2013-11-24 12:55:00,39.9,37.5,30.10,SW,234,2.0,2.0,91,0.00,,,0.07,Wunderground v.1.15,2013-11-24 19:55:00,
2013-11-24 13:00:00,40.2,37.8,30.10,WSW,253,2.0,5.0,91,0.00,,,0.07,Wunderground v.1.15,2013-11-24 20:00:00,
2013-11-24 13:05:00,40.2,37.8,30.10,West,267,2.0,5.0,91,0.00,,,0.07,Wunderground v.1.15,2013-11-24 20:05:00,
2013-11-24 13:15:00,40.4,38.0,30.10,NNW,336,2.0,3.0,91,0.00,,,0.07,Wunderground v.1.15,2013-11-24 20:15:00,
2013-11-24 13:20:00,40.8,38.4,30.10,NW,318,1.0,1.0,91,0.00,,,0.07,Wunderground v.1.15,2013-11-24 20:20:00,
2013-11-24 13:25:00,41.0,38.6,30.10,NW,315,0.0,1.0,91,0.00,,,0.07,Wunderground v.1.15,2013-11-24 20:25:00,
2013-11-24 13:30:00,41.0,38.3,30.10,NW,317,1.0,1.0,90,0.00,,,0.07,Wunderground v.1.15,2013-11-24 20:30:00,
2013-11-24 13:35:00,41.1,38.4,30.10,NW,322,1.0,2.0,90,0.00,,,0.07,Wunderground v.1.15,2013-11-24 20:35:00,
2013-11-24 13:40:00,41.1,38.1,30.10,NNW,338,2.0,2.0,89,0.00,,,0.07,Wunderground v.1.15,2013-11-24 20:40:00,
2013-11-24 13:50:00,41.1,37.5,30.10,West,268,2.0,2.0,87,0.00,,,0.07,Wunderground v.1.15,2013-11-24 20:50:00,
2013-11-24 13:55:00,41.1,37.2,30.10,NW,315,1.0,2.0,86,0.00,,,0.07,Wunderground v.1.15,2013-11-24 20:55:00,
2013-11-24 14:00:00,41.3,37.1,30.10,NW,310,1.0,4.0,85,0.00,,,0.07,Wunderground v.1.15,2013-11-24 21:00:00,
2013-11-24 14:05:00,41.3,36.8,30.09,NW,311,1.0,4.0,84,0.00,,,0.07,Wunderground v.1.15,2013-11-24 21:05:00,
2013-11-24 14:15:00,41.3,36.8,30.09,NW,311,1.0,4.0,84,0.00,,,0.07,Wunderground v.1.15,2013-11-24 21:15:00,
2013-11-24 14:25:00,41.4,36.6,30.09,NW,323,1.0,3.0,83,0.00,,,0.07,Wunderground v.1.15,2013-11-24 21:25:00,
2013-11-24 14:30:00,41.6,37.1,30.08,WNW,287,1.0,1.0,84,0.00,,,0.07,Wunderground v.1.15,2013-11-24 21:30:00,
2013-11-24 14:35:00,41.6,36.8,30.08,West,260,0.0,2.0,83,0.00,,,0.07,Wunderground v.1.15,2013-11-24 21:35:00,
2013-11-24 14:40:00,41.6,36.8,30.08,West,260,0.0,0.0,83,0.00,,,0.07,Wunderground v.1.15,2013-11-24 21:40:00,
2013-11-24 14:45:00,41.7,36.9,30.08,West,261,0.0,0.0,83,0.00,,,0.07,Wunderground v.1.15,2013-11-24 21:45:00,
2013-11-24 14:50:00,41.9,37.1,30.08,WSW,250,0.0,0.0,83,0.00,,,0.07,Wunderground v.1.15,2013-11-24 21:50:00,
2013-11-24 14:55:00,42.4,37.6,30.08,WSW,254,0.0,0.0,83,0.00,,,0.07,Wunderground v.1.15,2013-11-24 21:55:00,
2013-11-24 15:05:00,43.1,37.3,30.08,NNW,337,0.0,0.0,80,0.00,,,0.07,Wunderground v.1.15,2013-11-24 22:05:00,
2013-11-24 15:15:00,43.4,37.0,30.08,West,278,2.0,3.0,78,0.00,,,0.07,Wunderground v.1.15,2013-11-24 22:15:00,
2013-11-24 15:20:00,43.0,36.3,30.09,WNW,302,2.0,4.0,77,0.00,,,0.07,Wunderground v.1.15,2013-11-24 22:20:00,
2013-11-24 15:25:00,42.6,35.2,30.09,NW,310,2.0,4.0,75,0.00,,,0.07,Wunderground v.1.15,2013-11-24 22:25:00,
2013-11-24 15:35:00,42.0,35.0,30.09,WNW,298,2.0,3.0,76,0.00,,,0.07,Wunderground v.1.15,2013-11-24 22:35:00,
2013-11-24 15:40:00,41.8,34.8,30.09,NW,318,1.0,1.0,76,0.00,,,0.07,Wunderground v.1.15,2013-11-24 22:40:00,
2013-11-24 15:45:00,41.7,35.0,30.08,NW,310,1.0,1.0,77,0.00,,,0.07,Wunderground v.1.15,2013-11-24 22:45:00,
2013-11-24 15:50:00,41.6,34.9,30.08,WNW,300,1.0,1.0,77,0.00,,,0.07,Wunderground v.1.15,2013-11-24 22:50:00,
2013-11-24 15:55:00,41.5,35.2,30.09,WNW,298,1.0,3.0,78,0.00,,,0.07,Wunderground v.1.15,2013-11-24 22:55:00,
2013-11-24 16:00:00,41.4,35.1,30.10,NNW,329,2.0,2.0,78,0.00,,,0.07,Wunderground v.1.15,2013-11-24 23:00:00,
2013-11-24 16:05:00,41.2,34.5,30.10,NW,326,2.0,3.0,77,0.00,,,0.07,Wunderground v.1.15,2013-11-24 23:05:00,
2013-11-24 16:15:00,41.1,34.8,30.10,NW,322,3.0,3.0,78,0.00,,,0.07,Wunderground v.1.15,2013-11-24 23:15:00,
2013-11-24 16:20:00,40.9,34.6,30.10,NNW,331,3.0,6.0,78,0.00,,,0.07,Wunderground v.1.15,2013-11-24 23:20:00,
2013-11-24 16:25:00,40.8,34.5,30.10,NNW,331,3.0,6.0,78,0.00,,,0.07,Wunderground v.1.15,2013-11-24 23:25:00,
2013-11-24 16:30:00,40.7,34.7,30.10,NW,323,2.0,4.0,79,0.00,,,0.07,Wunderground v.1.15,2013-11-24 23:30:00,
2013-11-24 16:35:00,40.5,34.5,30.10,NW,326,2.0,4.0,79,0.00,,,0.07,Wunderground v.1.15,2013-11-24 23:35:00,
2013-11-24 16:40:00,40.4,34.4,30.10,NW,321,2.0,3.0,79,0.00,,,0.07,Wunderground v.1.15,2013-11-24 23:40:00,
2013-11-24 16:45:00,40.2,34.2,30.09,WNW,303,2.0,3.0,79,0.00,,,0.07,Wunderground v.1.15,2013-11-24 23:45:00,
2013-11-24 16:55:00,40.0,34.3,30.09,NW,313,1.0,2.0,80,0.00,,,0.07,Wunderground v.1.15,2013-11-24 23:55:00,
2013-11-24 17:00:00,39.8,34.1,30.09,NNW,330,1.0,4.0,80,0.00,,,0.07,Wunderground v.1.15,2013-11-25 00:00:00,
2013-11-24 17:05:00,39.6,33.9,30.09,NNW,327,2.0,4.0,80,0.00,,,0.07,Wunderground v.1.15,2013-11-25 00:05:00,
2013-11-24 17:15:00,39.3,34.0,30.10,NNW,344,2.0,2.0,81,0.00,,,0.07,Wunderground v.1.15,2013-11-25 00:15:00,
2013-11-24 17:20:00,39.2,33.9,30.10,NW,306,1.0,1.0,81,0.00,,,0.07,Wunderground v.1.15,2013-11-25 00:20:00,
2013-11-24 17:30:00,39.0,34.0,30.10,NW,321,1.0,1.0,82,0.00,,,0.07,Wunderground v.1.15,2013-11-25 00:30:00,
2013-11-24 17:35:00,39.0,34.0,30.10,North,10,1.0,1.0,82,0.00,,,0.07,Wunderground v.1.15,2013-11-25 00:35:00,
2013-11-24 17:40:00,38.9,33.9,30.11,NW,321,1.0,1.0,82,0.00,,,0.07,Wunderground v.1.15,2013-11-25 00:40:00,
2013-11-24 17:45:00,38.9,33.9,30.11,NW,321,1.0,1.0,82,0.00,,,0.07,Wunderground v.1.15,2013-11-25 00:45:00,
2013-11-24 17:50:00,38.9,33.9,30.11,NW,317,1.0,2.0,82,0.00,,,0.07,Wunderground v.1.15,2013-11-25 00:50:00,
2013-11-24 17:55:00,38.9,33.9,30.11,NNW,335,3.0,6.0,82,0.00,,,0.07,Wunderground v.1.15,2013-11-25 00:55:00,
2013-11-24 18:05:00,38.9,33.9,30.11,NNW,333,2.0,4.0,82,0.00,,,0.07,Wunderground v.1.15,2013-11-25 01:05:00,
2013-11-24 18:15:00,38.9,33.9,30.11,NW,325,1.0,1.0,82,0.00,,,0.07,Wunderground v.1.15,2013-11-25 01:15:00,
2013-11-24 18:20:00,38.9,33.9,30.11,NW,323,1.0,3.0,82,0.00,,,0.07,Wunderground v.1.15,2013-11-25 01:20:00,
2013-11-24 18:25:00,38.9,33.9,30.11,NW,321,2.0,4.0,82,0.00,,,0.07,Wunderground v.1.15,2013-11-25 01:25:00,
2013-11-24 18:30:00,38.8,33.8,30.11,NW,319,2.0,2.0,82,0.00,,,0.07,Wunderground v.1.15,2013-11-25 01:30:00,
2013-11-24 18:40:00,38.7,33.7,30.11,NNW,329,2.0,2.0,82,0.00,,,0.07,Wunderground v.1.15,2013-11-25 01:40:00,
2013-11-24 18:45:00,38.7,34.0,30.11,NW,319,2.0,2.0,83,0.00,,,0.07,Wunderground v.1.15,2013-11-25 01:45:00,
2013-11-24 18:50:00,38.6,33.9,30.11,NNW,331,1.0,1.0,83,0.00,,,0.07,Wunderground v.1.15,2013-11-25 01:50:00,
2013-11-24 18:55:00,38.5,33.8,30.11,NW,319,0.0,1.0,83,0.00,,,0.07,Wunderground v.1.15,2013-11-25 01:55:00,
2013-11-24 19:00:00,38.4,33.7,30.11,NNW,331,0.0,0.0,83,0.00,,,0.07,Wunderground v.1.15,2013-11-25 02:00:00,
2013-11-24 19:05:00,38.4,33.7,30.10,NNW,329,0.0,0.0,83,0.00,,,0.07,Wunderground v.1.15,2013-11-25 02:05:00,
2013-11-24 19:15:00,38.3,33.6,30.11,NNW,327,0.0,0.0,83,0.00,,,0.07,Wunderground v.1.15,2013-11-25 02:15:00,
2013-11-24 19:20:00,38.3,33.9,30.11,North,355,1.0,1.0,84,0.00,,,0.07,Wunderground v.1.15,2013-11-25 02:20:00,
2013-11-24 19:25:00,38.3,33.9,30.11,NNW,331,2.0,2.0,84,0.00,,,0.07,Wunderground v.1.15,2013-11-25 02:25:00,
2013-11-24 19:30:00,38.3,33.9,30.11,NW,322,2.0,2.0,84,0.00,,,0.07,Wunderground v.1.15,2013-11-25 02:30:00,
2013-11-24 19:35:00,38.2,33.8,30.11,WNW,287,3.0,5.0,84,0.00,,,0.07,Wunderground v.1.15,2013-11-25 02:35:00,
2013-11-24 19:40:00,38.2,33.8,30.11,NW,324,3.0,3.0,84,0.00,,,0.07,Wunderground v.1.15,2013-11-25 02:40:00,
2013-11-24 19:50:00,38.2,33.8,30.11,NW,318,2.0,6.0,84,0.00,,,0.07,Wunderground v.1.15,2013-11-25 02:50:00,
2013-11-24 19:55:00,38.2,33.8,30.11,NW,311,3.0,6.0,84,0.00,,,0.07,Wunderground v.1.15,2013-11-25 02:55:00,
2013-11-24 20:00:00,38.2,33.8,30.11,NNW,331,2.0,2.0,84,0.00,,,0.07,Wunderground v.1.15,2013-11-25 03:00:00,
2013-11-24 20:05:00,38.1,33.7,30.11,NNW,333,1.0,5.0,84,0.00,,,0.07,Wunderground v.1.15,2013-11-25 03:05:00,
2013-11-24 20:15:00,38.0,33.9,30.11,NW,315,2.0,5.0,85,0.00,,,0.07,Wunderground v.1.15,2013-11-25 03:15:00,
2013-11-24 20:20:00,38.0,33.9,30.11,WNW,296,3.0,6.0,85,0.00,,,0.07,Wunderground v.1.15,2013-11-25 03:20:00,
2013-11-24 20:25:00,38.0,33.9,30.11,NW,314,4.0,6.0,85,0.00,,,0.07,Wunderground v.1.15,2013-11-25 03:25:00,
2013-11-24 20:30:00,37.9,33.8,30.12,NW,309,4.0,5.0,85,0.00,,,0.07,Wunderground v.1.15,2013-11-25 03:30:00,
2013-11-24 20:35:00,37.9,33.8,30.12,NW,313,4.0,5.0,85,0.00,,,0.07,Wunderground v.1.15,2013-11-25 03:35:00,
2013-11-24 20:40:00,37.9,33.8,30.12,NW,317,4.0,4.0,85,0.00,,,0.07,Wunderground v.1.15,2013-11-25 03:40:00,
2013-11-24 20:45:00,37.9,33.8,30.12,NW,310,2.0,4.0,85,0.00,,,0.07,Wunderground v.1.15,2013-11-25 03:45:00,
2013-11-24 20:50:00,37.9,33.8,30.11,WNW,300,0.0,0.0,85,0.00,,,0.07,Wunderground v.1.15,2013-11-25 03:50:00,
2013-11-24 21:00:00,37.7,33.9,30.12,NW,313,1.0,1.0,86,0.00,,,0.07,Wunderground v.1.15,2013-11-25 04:00:00,
2013-11-24 21:05:00,37.7,33.9,30.11,NW,321,2.0,3.0,86,0.00,,,0.07,Wunderground v.1.15,2013-11-25 04:05:00,
2013-11-24 21:15:00,37.7,33.9,30.12,NW,321,4.0,6.0,86,0.00,,,0.07,Wunderground v.1.15,2013-11-25 04:15:00,
2013-11-24 21:20:00,37.7,33.9,30.12,NW,323,4.0,4.0,86,0.00,,,0.07,Wunderground v.1.15,2013-11-25 04:20:00,
2013-11-24 21:25:00,37.8,34.0,30.12,WNW,298,4.0,4.0,86,0.00,,,0.07,Wunderground v.1.15,2013-11-25 04:25:00,
2013-11-24 21:35:00,37.9,33.8,30.13,NNW,330,5.0,10.0,85,0.00,,,0.07,Wunderground v.1.15,2013-11-25 04:35:00,
2013-11-24 21:40:00,37.9,33.8,30.13,NW,317,4.0,4.0,85,0.00,,,0.07,Wunderground v.1.15,2013-11-25 04:40:00,
2013-11-24 21:45:00,37.9,33.8,30.13,NW,325,3.0,4.0,85,0.00,,,0.07,Wunderground v.1.15,2013-11-25 04:45:00,
2013-11-24 21:50:00,37.9,33.8,30.13,NNW,338,2.0,2.0,85,0.00,,,0.07,Wunderground v.1.15,2013-11-25 04:50:00,
2013-11-24 21:55:00,37.8,33.7,30.13,NW,317,2.0,3.0,85,0.00,,,0.07,Wunderground v.1.15,2013-11-25 04:55:00,
2013-11-24 22:00:00,37.8,33.7,30.13,NNW,333,2.0,6.0,85,0.00,,,0.07,Wunderground v.1.15,2013-11-25 05:00:00,
2013-11-24 22:05:00,37.7,33.6,30.13,NW,321,2.0,6.0,85,0.00,,,0.07,Wunderground v.1.15,2013-11-25 05:05:00,
2013-11-24 22:15:00,37.6,33.5,30.13,NW,325,0.0,1.0,85,0.00,,,0.07,Wunderground v.1.15,2013-11-25 05:15:00,
2013-11-24 22:20:00,37.5,33.4,30.13,NNW,331,1.0,2.0,85,0.00,,,0.07,Wunderground v.1.15,2013-11-25 05:20:00,
2013-11-24 22:25:00,37.4,33.3,30.13,NNW,331,1.0,2.0,85,0.00,,,0.07,Wunderground v.1.15,2013-11-25 05:25:00,
2013-11-24 22:30:00,37.3,33.2,30.13,NNW,337,1.0,1.0,85,0.00,,,0.07,Wunderground v.1.15,2013-11-25 05:30:00,
2013-11-24 22:35:00,37.3,33.2,30.13,NW,321,0.0,3.0,85,0.00,,,0.07,Wunderground v.1.15,2013-11-25 05:35:00,
2013-11-24 22:40:00,37.3,33.2,30.14,NW,319,1.0,1.0,85,0.00,,,0.07,Wunderground v.1.15,2013-11-25 05:40:00,
2013-11-24 22:45:00,37.4,33.3,30.13,NNW,333,1.0,1.0,85,0.00,,,0.07,Wunderground v.1.15,2013-11-25 05:45:00,
2013-11-24 22:55:00,37.3,33.2,30.13,NW,312,0.0,5.0,85,0.00,,,0.07,Wunderground v.1.15,2013-11-25 05:55:00,
2013-11-24 23:00:00,37.3,33.2,30.13,WNW,284,1.0,1.0,85,0.00,,,0.07,Wunderground v.1.15,2013-11-25 06:00:00,
2013-11-24 23:05:00,37.3,33.5,30.13,WNW,293,0.0,1.0,86,0.00,,,0.07,Wunderground v.1.15,2013-11-25 06:05:00,
2013-11-24 23:15:00,37.3,33.5,30.14,NW,314,1.0,1.0,86,0.00,,,0.07,Wunderground v.1.15,2013-11-25 06:15:00,
2013-11-24 23:20:00,37.3,33.5,30.14,NW,325,0.0,0.0,86,0.00,,,0.07,Wunderground v.1.15,2013-11-25 06:20:00,
2013-11-24 23:30:00,37.2,33.1,30.14,NW,321,1.0,1.0,85,0.00,,,0.07,Wunderground v.1.15,2013-11-25 06:30:00,
2013-11-24 23:35:00,37.2,33.1,30.14,NNW,329,0.0,1.0,85,0.00,,,0.07,Wunderground v.1.15,2013-11-25 06:35:00,
2013-11-24 23:40:00,37.2,33.1,30.15,NNW,327,1.0,1.0,85,0.00,,,0.07,Wunderground v.1.15,2013-11-25 06:40:00,
2013-11-24 23:45:00,37.0,32.9,30.15,NNW,332,1.0,1.0,85,0.00,,,0.07,Wunderground v.1.15,2013-11-25 06:45:00,
2013-11-24 23:50:00,36.9,32.8,30.14,NNW,329,0.0,0.0,85,0.00,,,0.07,Wunderground v.1.15,2013-11-25 06:50:00,